Fort Pierce, FL

08:55 EST le 20 janvier 2017 (GMT -0500)
Kirchman South | | Change Station

Alt. 18 ft 27.46 °N, 80.49 °W | Updated 15 minutes ago

Ciel dégagé
Ciel dégagé
61.5 ° F
Paraît 61.5 ° F
N
0.0
Vent Variable Vent de SE
Gusts 14.0 mph

Aujourd'hui
Haut(e) -- | Bas -- ° F
--% Risque de précip.
Hier
Haut(e) -- | Bas -- ° F
Precip. -- pouce
Pression 30.02 pouce
Visibilité 10.0 Miles terrestres
Nuages Ciel dégagé
Point de rosée 60 ° F
Humidité 95%
Précipitations 0.00 pouce
Profondeur de la couche neigeuse Non disponible.
7:12 AM 5:53 PM
Dernier quartier, 44% visible
METAR KFPR 201353Z 26003KT 10SM CLR 19/17 A3002 RMK AO2 SLP164 T01890172
Pression 30.02 pouce
Visibilité 10.0 Miles terrestres
Nuages Ciel dégagé
Point de rosée 60 ° F
Humidité 95%
Précipitations 0.00 pouce
Profondeur de la couche neigeuse Non disponible.
7:12 AM 5:53 PM
Dernier quartier, 44% visible
METAR KFPR 201353Z 26003KT 10SM CLR 19/17 A3002 RMK AO2 SLP164 T01890172

Get Your Daily Forecast Email!

Thanks for signing up!

Be on the lookout for a verification email in your inbox.

You'll start receiving the daily forecast at 8 AM.

×

10-Day Weather Forecast

Almanac

Astronomie

Jan. 20, 2017 Lever Coucher
Temps réel
Crépuscule civil
Crépuscule nautique
Crépuscule astronomique
Lune
Durée de lumière visible
Longueur du jour
Tomorrow will be .
, % of the Moon is Illuminated

Extrêmes aujourd'hui

State Highs State Lows

Community

WunderPhotos

Upload Photos

1,962,540 Photos téléchargées !

WunderBlog® & News

Nearby

Qualité de l'air

  Qualité de l'air Indice de la qualité de l'air Polluant
Not available.

Épaisseur de neige

Station Depth Altitude

Activité sismique

Ville Distance Mag. Time & Date
Minimum magnitude displayed is 2.5.

Températures des eaux côtières

Lieu Température

Stations

Stations météo à proximité

Emplacement de la station Température Refroidissement éolien Point de rosée Humidité Vent Precip. Alt. Mise à jour Type
                   

Watches & Warnings

There are currently no watches in effect.